sensor_id;sensor_type;location;lat;lon;timestamp;P1;durP1;ratioP1;P2;durP2;ratioP2
13985;SDS011;7067;51.832;8.296;2023-02-16T00:00:07;39.07;;;27.97;;
13985;SDS011;7067;51.832;8.296;2023-02-16T00:02:39;39.30;;;27.10;;
13985;SDS011;7067;51.832;8.296;2023-02-16T00:05:11;39.63;;;27.33;;
13985;SDS011;7067;51.832;8.296;2023-02-16T00:07:50;45.87;;;28.13;;
13985;SDS011;7067;51.832;8.296;2023-02-16T00:10:19;40.63;;;28.30;;
13985;SDS011;7067;51.832;8.296;2023-02-16T00:12:47;40.73;;;27.80;;
13985;SDS011;7067;51.832;8.296;2023-02-16T00:15:31;35.53;;;27.03;;
13985;SDS011;7067;51.832;8.296;2023-02-16T00:17:57;39.17;;;27.30;;
13985;SDS011;7067;51.832;8.296;2023-02-16T00:20:24;39.37;;;28.13;;
13985;SDS011;7067;51.832;8.296;2023-02-16T00:22:49;38.27;;;28.13;;
13985;SDS011;7067;51.832;8.296;2023-02-16T00:25:14;40.10;;;27.87;;
13985;SDS011;7067;51.832;8.296;2023-02-16T00:27:40;41.17;;;28.70;;
13985;SDS011;7067;51.832;8.296;2023-02-16T00:30:14;37.53;;;28.50;;
13985;SDS011;7067;51.832;8.296;2023-02-16T00:32:42;39.33;;;27.30;;
13985;SDS011;7067;51.832;8.296;2023-02-16T00:35:17;36.57;;;26.53;;
13985;SDS011;7067;51.832;8.296;2023-02-16T00:37:44;39.47;;;28.53;;
13985;SDS011;7067;51.832;8.296;2023-02-16T00:40:11;38.90;;;28.73;;
13985;SDS011;7067;51.832;8.296;2023-02-16T00:42:37;36.77;;;27.90;;
13985;SDS011;7067;51.832;8.296;2023-02-16T00:45:03;38.13;;;28.47;;
13985;SDS011;7067;51.832;8.296;2023-02-16T00:50:13;44.67;;;29.37;;
13985;SDS011;7067;51.832;8.296;2023-02-16T00:52:41;39.80;;;28.93;;
13985;SDS011;7067;51.832;8.296;2023-02-16T00:55:11;39.40;;;28.83;;
13985;SDS011;7067;51.832;8.296;2023-02-16T00:57:42;40.00;;;29.20;;
13985;SDS011;7067;51.832;8.296;2023-02-16T01:00:22;48.37;;;29.13;;
13985;SDS011;7067;51.832;8.296;2023-02-16T01:02:49;39.60;;;28.67;;
13985;SDS011;7067;51.832;8.296;2023-02-16T01:05:16;43.77;;;31.30;;
13985;SDS011;7067;51.832;8.296;2023-02-16T01:07:42;39.90;;;28.87;;
13985;SDS011;7067;51.832;8.296;2023-02-16T01:10:26;42.33;;;30.17;;
13985;SDS011;7067;51.832;8.296;2023-02-16T01:13:10;41.83;;;29.77;;
13985;SDS011;7067;51.832;8.296;2023-02-16T01:15:36;42.93;;;31.63;;
13985;SDS011;7067;51.832;8.296;2023-02-16T01:18:02;42.57;;;32.50;;
13985;SDS011;7067;51.832;8.296;2023-02-16T01:20:27;41.20;;;29.53;;
13985;SDS011;7067;51.832;8.296;2023-02-16T01:22:53;46.33;;;31.47;;
13985;SDS011;7067;51.832;8.296;2023-02-16T01:25:18;42.97;;;32.37;;
13985;SDS011;7067;51.832;8.296;2023-02-16T01:27:43;45.70;;;33.27;;
13985;SDS011;7067;51.832;8.296;2023-02-16T01:30:13;46.53;;;32.40;;
13985;SDS011;7067;51.832;8.296;2023-02-16T01:32:43;46.97;;;33.27;;
13985;SDS011;7067;51.832;8.296;2023-02-16T01:35:19;48.40;;;32.27;;
13985;SDS011;7067;51.832;8.296;2023-02-16T01:37:49;45.77;;;33.23;;
13985;SDS011;7067;51.832;8.296;2023-02-16T01:45:45;47.90;;;34.20;;
13985;SDS011;7067;51.832;8.296;2023-02-16T01:48:23;48.73;;;34.00;;
13985;SDS011;7067;51.832;8.296;2023-02-16T01:53:57;46.13;;;33.73;;
13985;SDS011;7067;51.832;8.296;2023-02-16T01:58:55;44.57;;;32.57;;
13985;SDS011;7067;51.832;8.296;2023-02-16T02:01:37;45.50;;;33.33;;
13985;SDS011;7067;51.832;8.296;2023-02-16T02:04:24;47.80;;;33.60;;
13985;SDS011;7067;51.832;8.296;2023-02-16T02:07:17;49.50;;;34.47;;
13985;SDS011;7067;51.832;8.296;2023-02-16T02:09:51;50.17;;;32.97;;
13985;SDS011;7067;51.832;8.296;2023-02-16T02:12:31;42.53;;;30.87;;
13985;SDS011;7067;51.832;8.296;2023-02-16T02:14:59;44.80;;;32.57;;
13985;SDS011;7067;51.832;8.296;2023-02-16T02:17:24;44.87;;;32.70;;
13985;SDS011;7067;51.832;8.296;2023-02-16T02:19:55;40.83;;;30.87;;
13985;SDS011;7067;51.832;8.296;2023-02-16T02:27:52;45.60;;;33.27;;
13985;SDS011;7067;51.832;8.296;2023-02-16T02:35:38;42.40;;;32.20;;
13985;SDS011;7067;51.832;8.296;2023-02-16T02:44:10;44.97;;;32.73;;
13985;SDS011;7067;51.832;8.296;2023-02-16T02:46:36;44.87;;;31.60;;
13985;SDS011;7067;51.832;8.296;2023-02-16T02:49:02;55.43;;;34.40;;
13985;SDS011;7067;51.832;8.296;2023-02-16T02:51:27;49.47;;;32.93;;
13985;SDS011;7067;51.832;8.296;2023-02-16T02:53:57;49.13;;;33.33;;
13985;SDS011;7067;51.832;8.296;2023-02-16T02:56:46;51.67;;;35.43;;
13985;SDS011;7067;51.832;8.296;2023-02-16T02:59:33;48.47;;;33.93;;
13985;SDS011;7067;51.832;8.296;2023-02-16T03:02:20;46.27;;;33.00;;
13985;SDS011;7067;51.832;8.296;2023-02-16T03:04:48;49.93;;;35.63;;
13985;SDS011;7067;51.832;8.296;2023-02-16T03:07:14;49.70;;;34.23;;
13985;SDS011;7067;51.832;8.296;2023-02-16T03:09:40;50.43;;;35.87;;
13985;SDS011;7067;51.832;8.296;2023-02-16T03:12:06;50.50;;;35.67;;
13985;SDS011;7067;51.832;8.296;2023-02-16T03:14:52;52.53;;;35.60;;
13985;SDS011;7067;51.832;8.296;2023-02-16T03:17:22;50.25;;;35.25;;
13985;SDS011;7067;51.832;8.296;2023-02-16T03:20:10;56.13;;;36.15;;
13985;SDS011;7067;51.832;8.296;2023-02-16T03:22:55;52.77;;;35.70;;
13985;SDS011;7067;51.832;8.296;2023-02-16T03:25:39;52.30;;;36.87;;
13985;SDS011;7067;51.832;8.296;2023-02-16T03:28:24;50.80;;;35.57;;
13985;SDS011;7067;51.832;8.296;2023-02-16T03:31:09;56.10;;;35.60;;
13985;SDS011;7067;51.832;8.296;2023-02-16T03:33:36;49.07;;;35.37;;
13985;SDS011;7067;51.832;8.296;2023-02-16T03:36:02;51.87;;;35.90;;
13985;SDS011;7067;51.832;8.296;2023-02-16T03:38:29;46.17;;;35.37;;
13985;SDS011;7067;51.832;8.296;2023-02-16T03:40:54;51.57;;;37.03;;
13985;SDS011;7067;51.832;8.296;2023-02-16T03:43:23;55.27;;;38.03;;
13985;SDS011;7067;51.832;8.296;2023-02-16T03:45:49;51.78;;;36.42;;
13985;SDS011;7067;51.832;8.296;2023-02-16T03:48:14;51.87;;;36.10;;
13985;SDS011;7067;51.832;8.296;2023-02-16T03:50:39;49.00;;;36.53;;
13985;SDS011;7067;51.832;8.296;2023-02-16T03:53:05;52.70;;;36.63;;
13985;SDS011;7067;51.832;8.296;2023-02-16T03:55:34;53.40;;;37.77;;
13985;SDS011;7067;51.832;8.296;2023-02-16T03:57:59;54.42;;;38.00;;
13985;SDS011;7067;51.832;8.296;2023-02-16T04:00:25;52.80;;;37.70;;
13985;SDS011;7067;51.832;8.296;2023-02-16T04:02:51;49.13;;;35.97;;
13985;SDS011;7067;51.832;8.296;2023-02-16T04:05:16;51.63;;;35.97;;
13985;SDS011;7067;51.832;8.296;2023-02-16T04:07:41;50.67;;;37.47;;
13985;SDS011;7067;51.832;8.296;2023-02-16T04:10:07;52.20;;;35.87;;
13985;SDS011;7067;51.832;8.296;2023-02-16T04:12:32;49.90;;;35.87;;
13985;SDS011;7067;51.832;8.296;2023-02-16T04:15:01;54.57;;;38.80;;
13985;SDS011;7067;51.832;8.296;2023-02-16T04:17:31;52.53;;;37.17;;
13985;SDS011;7067;51.832;8.296;2023-02-16T04:19:56;53.73;;;38.70;;
13985;SDS011;7067;51.832;8.296;2023-02-16T04:22:22;60.43;;;37.63;;
13985;SDS011;7067;51.832;8.296;2023-02-16T04:24:47;62.17;;;38.87;;
13985;SDS011;7067;51.832;8.296;2023-02-16T04:27:12;47.97;;;35.43;;
13985;SDS011;7067;51.832;8.296;2023-02-16T04:29:38;53.10;;;37.87;;
13985;SDS011;7067;51.832;8.296;2023-02-16T04:32:03;52.53;;;36.23;;
13985;SDS011;7067;51.832;8.296;2023-02-16T04:34:28;59.57;;;38.03;;
13985;SDS011;7067;51.832;8.296;2023-02-16T04:36:54;51.03;;;36.73;;
13985;SDS011;7067;51.832;8.296;2023-02-16T04:39:19;53.63;;;36.60;;
13985;SDS011;7067;51.832;8.296;2023-02-16T04:41:45;54.97;;;39.60;;
13985;SDS011;7067;51.832;8.296;2023-02-16T04:44:11;55.37;;;38.33;;
13985;SDS011;7067;51.832;8.296;2023-02-16T04:46:36;53.50;;;38.97;;
13985;SDS011;7067;51.832;8.296;2023-02-16T04:49:01;62.93;;;39.93;;
13985;SDS011;7067;51.832;8.296;2023-02-16T04:51:27;50.30;;;38.00;;
13985;SDS011;7067;51.832;8.296;2023-02-16T04:53:52;57.40;;;39.97;;
13985;SDS011;7067;51.832;8.296;2023-02-16T04:56:18;54.07;;;38.97;;
13985;SDS011;7067;51.832;8.296;2023-02-16T04:58:43;53.73;;;39.47;;
13985;SDS011;7067;51.832;8.296;2023-02-16T05:01:16;56.43;;;38.30;;
13985;SDS011;7067;51.832;8.296;2023-02-16T05:03:42;55.13;;;38.63;;
13985;SDS011;7067;51.832;8.296;2023-02-16T05:06:07;53.80;;;38.60;;
13985;SDS011;7067;51.832;8.296;2023-02-16T05:08:33;51.17;;;36.87;;
13985;SDS011;7067;51.832;8.296;2023-02-16T05:10:58;51.73;;;36.07;;
13985;SDS011;7067;51.832;8.296;2023-02-16T05:13:42;54.87;;;37.10;;
13985;SDS011;7067;51.832;8.296;2023-02-16T05:16:25;53.67;;;38.30;;
13985;SDS011;7067;51.832;8.296;2023-02-16T05:18:51;54.93;;;38.40;;
13985;SDS011;7067;51.832;8.296;2023-02-16T05:21:16;54.10;;;37.50;;
13985;SDS011;7067;51.832;8.296;2023-02-16T05:23:57;52.37;;;37.73;;
13985;SDS011;7067;51.832;8.296;2023-02-16T05:26:26;54.05;;;38.75;;
13985;SDS011;7067;51.832;8.296;2023-02-16T05:28:52;55.43;;;37.20;;
13985;SDS011;7067;51.832;8.296;2023-02-16T05:31:18;54.97;;;39.27;;
13985;SDS011;7067;51.832;8.296;2023-02-16T05:33:43;56.30;;;39.47;;
13985;SDS011;7067;51.832;8.296;2023-02-16T05:36:08;54.27;;;36.10;;
13985;SDS011;7067;51.832;8.296;2023-02-16T05:38:34;51.23;;;37.97;;
13985;SDS011;7067;51.832;8.296;2023-02-16T05:40:59;59.43;;;39.87;;
13985;SDS011;7067;51.832;8.296;2023-02-16T05:43:25;61.03;;;40.63;;
13985;SDS011;7067;51.832;8.296;2023-02-16T05:45:50;57.03;;;38.83;;
13985;SDS011;7067;51.832;8.296;2023-02-16T05:48:15;58.33;;;40.10;;
13985;SDS011;7067;51.832;8.296;2023-02-16T05:50:41;60.60;;;40.13;;
13985;SDS011;7067;51.832;8.296;2023-02-16T05:53:06;59.23;;;40.30;;
13985;SDS011;7067;51.832;8.296;2023-02-16T05:55:31;59.87;;;41.17;;
13985;SDS011;7067;51.832;8.296;2023-02-16T05:57:57;52.97;;;38.83;;
13985;SDS011;7067;51.832;8.296;2023-02-16T06:00:22;56.43;;;38.83;;
13985;SDS011;7067;51.832;8.296;2023-02-16T06:02:48;61.83;;;40.47;;
13985;SDS011;7067;51.832;8.296;2023-02-16T06:05:13;58.83;;;40.33;;
13985;SDS011;7067;51.832;8.296;2023-02-16T06:07:38;57.33;;;40.40;;
13985;SDS011;7067;51.832;8.296;2023-02-16T06:10:04;62.63;;;42.10;;
13985;SDS011;7067;51.832;8.296;2023-02-16T06:12:30;61.13;;;41.17;;
13985;SDS011;7067;51.832;8.296;2023-02-16T06:14:56;61.00;;;42.43;;
13985;SDS011;7067;51.832;8.296;2023-02-16T06:17:22;54.33;;;40.03;;
13985;SDS011;7067;51.832;8.296;2023-02-16T06:19:47;58.20;;;42.47;;
13985;SDS011;7067;51.832;8.296;2023-02-16T06:22:12;54.90;;;40.80;;
13985;SDS011;7067;51.832;8.296;2023-02-16T06:24:38;56.67;;;41.07;;
13985;SDS011;7067;51.832;8.296;2023-02-16T06:27:03;63.53;;;41.97;;
13985;SDS011;7067;51.832;8.296;2023-02-16T06:29:29;61.97;;;42.27;;
13985;SDS011;7067;51.832;8.296;2023-02-16T06:31:54;65.83;;;44.03;;
13985;SDS011;7067;51.832;8.296;2023-02-16T06:34:20;60.70;;;43.07;;
13985;SDS011;7067;51.832;8.296;2023-02-16T06:36:45;62.93;;;45.40;;
13985;SDS011;7067;51.832;8.296;2023-02-16T06:39:11;67.80;;;46.70;;
13985;SDS011;7067;51.832;8.296;2023-02-16T06:41:36;68.87;;;46.87;;
13985;SDS011;7067;51.832;8.296;2023-02-16T06:44:05;66.30;;;45.27;;
13985;SDS011;7067;51.832;8.296;2023-02-16T06:46:32;68.50;;;45.50;;
13985;SDS011;7067;51.832;8.296;2023-02-16T06:48:58;64.33;;;44.60;;
13985;SDS011;7067;51.832;8.296;2023-02-16T06:51:23;67.10;;;44.23;;
13985;SDS011;7067;51.832;8.296;2023-02-16T06:53:48;64.10;;;43.47;;
13985;SDS011;7067;51.832;8.296;2023-02-16T06:56:14;69.87;;;44.53;;
13985;SDS011;7067;51.832;8.296;2023-02-16T06:58:39;70.43;;;44.67;;
13985;SDS011;7067;51.832;8.296;2023-02-16T07:01:05;69.50;;;46.80;;
13985;SDS011;7067;51.832;8.296;2023-02-16T07:03:30;65.63;;;45.40;;
13985;SDS011;7067;51.832;8.296;2023-02-16T07:05:55;68.37;;;43.83;;
13985;SDS011;7067;51.832;8.296;2023-02-16T07:08:21;72.17;;;47.47;;
13985;SDS011;7067;51.832;8.296;2023-02-16T07:10:47;66.33;;;44.63;;
13985;SDS011;7067;51.832;8.296;2023-02-16T07:13:12;65.07;;;43.07;;
13985;SDS011;7067;51.832;8.296;2023-02-16T07:15:38;63.83;;;42.07;;
13985;SDS011;7067;51.832;8.296;2023-02-16T07:18:03;69.93;;;44.67;;
13985;SDS011;7067;51.832;8.296;2023-02-16T07:20:29;68.20;;;44.27;;
13985;SDS011;7067;51.832;8.296;2023-02-16T07:22:54;70.37;;;46.93;;
13985;SDS011;7067;51.832;8.296;2023-02-16T07:25:20;72.03;;;48.00;;
13985;SDS011;7067;51.832;8.296;2023-02-16T07:27:45;69.00;;;46.03;;
13985;SDS011;7067;51.832;8.296;2023-02-16T07:30:11;66.70;;;45.57;;
13985;SDS011;7067;51.832;8.296;2023-02-16T07:32:37;63.03;;;43.17;;
13985;SDS011;7067;51.832;8.296;2023-02-16T07:35:02;76.27;;;49.63;;
13985;SDS011;7067;51.832;8.296;2023-02-16T07:37:28;74.10;;;49.27;;
13985;SDS011;7067;51.832;8.296;2023-02-16T07:39:53;72.13;;;49.90;;
13985;SDS011;7067;51.832;8.296;2023-02-16T07:42:19;65.10;;;43.50;;
13985;SDS011;7067;51.832;8.296;2023-02-16T07:44:45;57.20;;;40.43;;
13985;SDS011;7067;51.832;8.296;2023-02-16T07:47:10;56.90;;;39.67;;
13985;SDS011;7067;51.832;8.296;2023-02-16T07:49:37;57.33;;;40.60;;
13985;SDS011;7067;51.832;8.296;2023-02-16T07:52:03;55.40;;;37.77;;
13985;SDS011;7067;51.832;8.296;2023-02-16T07:54:29;58.87;;;37.07;;
13985;SDS011;7067;51.832;8.296;2023-02-16T07:56:55;53.67;;;38.43;;
13985;SDS011;7067;51.832;8.296;2023-02-16T07:59:21;54.67;;;35.80;;
13985;SDS011;7067;51.832;8.296;2023-02-16T08:01:46;49.13;;;35.80;;
13985;SDS011;7067;51.832;8.296;2023-02-16T08:04:11;52.90;;;34.60;;
13985;SDS011;7067;51.832;8.296;2023-02-16T08:06:37;52.10;;;36.70;;
13985;SDS011;7067;51.832;8.296;2023-02-16T08:09:02;54.77;;;35.70;;
13985;SDS011;7067;51.832;8.296;2023-02-16T08:11:28;53.93;;;35.33;;
13985;SDS011;7067;51.832;8.296;2023-02-16T08:13:53;53.80;;;35.60;;
13985;SDS011;7067;51.832;8.296;2023-02-16T08:16:23;52.47;;;34.33;;
13985;SDS011;7067;51.832;8.296;2023-02-16T08:18:50;57.13;;;34.13;;
13985;SDS011;7067;51.832;8.296;2023-02-16T08:21:17;49.87;;;34.93;;
13985;SDS011;7067;51.832;8.296;2023-02-16T08:23:54;58.90;;;36.70;;
13985;SDS011;7067;51.832;8.296;2023-02-16T08:26:21;49.40;;;34.40;;
13985;SDS011;7067;51.832;8.296;2023-02-16T08:28:47;51.63;;;33.77;;
13985;SDS011;7067;51.832;8.296;2023-02-16T08:31:21;48.77;;;34.03;;
13985;SDS011;7067;51.832;8.296;2023-02-16T08:33:48;51.27;;;34.17;;
13985;SDS011;7067;51.832;8.296;2023-02-16T08:36:18;49.60;;;33.60;;
13985;SDS011;7067;51.832;8.296;2023-02-16T08:38:44;50.05;;;34.63;;
13985;SDS011;7067;51.832;8.296;2023-02-16T08:41:10;50.90;;;34.23;;
13985;SDS011;7067;51.832;8.296;2023-02-16T08:43:35;51.93;;;34.50;;
13985;SDS011;7067;51.832;8.296;2023-02-16T08:46:01;49.90;;;33.17;;
13985;SDS011;7067;51.832;8.296;2023-02-16T08:48:26;51.00;;;33.70;;
13985;SDS011;7067;51.832;8.296;2023-02-16T08:50:53;49.93;;;34.77;;
13985;SDS011;7067;51.832;8.296;2023-02-16T08:53:21;51.83;;;33.83;;
13985;SDS011;7067;51.832;8.296;2023-02-16T08:55:50;47.53;;;33.00;;
13985;SDS011;7067;51.832;8.296;2023-02-16T08:58:18;50.33;;;32.70;;
13985;SDS011;7067;51.832;8.296;2023-02-16T09:00:43;46.20;;;32.80;;
13985;SDS011;7067;51.832;8.296;2023-02-16T09:03:08;40.43;;;30.07;;
13985;SDS011;7067;51.832;8.296;2023-02-16T09:05:34;47.40;;;33.17;;
13985;SDS011;7067;51.832;8.296;2023-02-16T09:07:59;49.93;;;32.67;;
13985;SDS011;7067;51.832;8.296;2023-02-16T09:10:24;48.13;;;31.93;;
13985;SDS011;7067;51.832;8.296;2023-02-16T09:12:50;46.53;;;33.53;;
13985;SDS011;7067;51.832;8.296;2023-02-16T09:15:15;42.33;;;32.10;;
13985;SDS011;7067;51.832;8.296;2023-02-16T09:17:41;47.83;;;31.67;;
13985;SDS011;7067;51.832;8.296;2023-02-16T09:20:07;47.83;;;32.73;;
13985;SDS011;7067;51.832;8.296;2023-02-16T09:22:33;49.37;;;32.23;;
13985;SDS011;7067;51.832;8.296;2023-02-16T09:24:58;46.23;;;32.27;;
13985;SDS011;7067;51.832;8.296;2023-02-16T09:27:24;96.33;;;37.17;;
13985;SDS011;7067;51.832;8.296;2023-02-16T09:29:50;62.30;;;34.10;;
13985;SDS011;7067;51.832;8.296;2023-02-16T09:32:15;45.53;;;33.07;;
13985;SDS011;7067;51.832;8.296;2023-02-16T09:34:41;45.67;;;33.33;;
13985;SDS011;7067;51.832;8.296;2023-02-16T09:37:08;50.60;;;32.27;;
13985;SDS011;7067;51.832;8.296;2023-02-16T09:39:34;51.03;;;32.33;;
13985;SDS011;7067;51.832;8.296;2023-02-16T09:47:21;55.97;;;36.45;;
13985;SDS011;7067;51.832;8.296;2023-02-16T09:49:49;62.33;;;33.03;;
13985;SDS011;7067;51.832;8.296;2023-02-16T10:08:13;109.80;;;39.13;;
13985;SDS011;7067;51.832;8.296;2023-02-16T10:10:49;93.95;;;34.67;;
13985;SDS011;7067;51.832;8.296;2023-02-16T10:16:02;104.55;;;34.05;;
13985;SDS011;7067;51.832;8.296;2023-02-16T10:18:30;84.68;;;30.33;;
13985;SDS011;7067;51.832;8.296;2023-02-16T10:20:59;42.50;;;28.45;;
13985;SDS011;7067;51.832;8.296;2023-02-16T10:26:14;104.78;;;34.40;;
13985;SDS011;7067;51.832;8.296;2023-02-16T10:28:54;89.70;;;31.63;;
13985;SDS011;7067;51.832;8.296;2023-02-16T10:39:24;77.53;;;27.80;;
13985;SDS011;7067;51.832;8.296;2023-02-16T10:41:56;73.63;;;31.38;;
13985;SDS011;7067;51.832;8.296;2023-02-16T10:44:45;50.28;;;25.77;;
13985;SDS011;7067;51.832;8.296;2023-02-16T10:49:59;94.30;;;38.05;;
13985;SDS011;7067;51.832;8.296;2023-02-16T10:52:25;83.60;;;36.08;;
13985;SDS011;7067;51.832;8.296;2023-02-16T10:57:27;79.70;;;30.42;;
13985;SDS011;7067;51.832;8.296;2023-02-16T10:59:56;83.55;;;38.67;;
13985;SDS011;7067;51.832;8.296;2023-02-16T11:05:01;62.83;;;27.77;;
13985;SDS011;7067;51.832;8.296;2023-02-16T11:07:29;81.50;;;37.50;;
13985;SDS011;7067;51.832;8.296;2023-02-16T11:09:56;70.85;;;29.08;;
13985;SDS011;7067;51.832;8.296;2023-02-16T11:12:31;71.78;;;28.80;;
13985;SDS011;7067;51.832;8.296;2023-02-16T11:15:02;75.57;;;31.48;;
13985;SDS011;7067;51.832;8.296;2023-02-16T11:17:31;59.53;;;29.33;;
13985;SDS011;7067;51.832;8.296;2023-02-16T11:19:58;65.65;;;27.67;;
13985;SDS011;7067;51.832;8.296;2023-02-16T11:22:31;73.30;;;27.50;;
13985;SDS011;7067;51.832;8.296;2023-02-16T11:25:04;82.80;;;42.72;;
13985;SDS011;7067;51.832;8.296;2023-02-16T11:27:50;73.90;;;33.53;;
13985;SDS011;7067;51.832;8.296;2023-02-16T11:30:33;34.60;;;25.05;;
13985;SDS011;7067;51.832;8.296;2023-02-16T11:33:04;64.78;;;29.45;;
13985;SDS011;7067;51.832;8.296;2023-02-16T11:35:43;82.88;;;35.83;;
13985;SDS011;7067;51.832;8.296;2023-02-16T11:38:22;80.97;;;33.55;;
13985;SDS011;7067;51.832;8.296;2023-02-16T11:40:52;80.47;;;32.33;;
13985;SDS011;7067;51.832;8.296;2023-02-16T11:43:18;61.55;;;28.33;;
13985;SDS011;7067;51.832;8.296;2023-02-16T11:45:44;73.65;;;28.85;;
13985;SDS011;7067;51.832;8.296;2023-02-16T11:48:25;76.32;;;34.58;;
13985;SDS011;7067;51.832;8.296;2023-02-16T11:51:02;82.00;;;29.55;;
13985;SDS011;7067;51.832;8.296;2023-02-16T11:53:31;58.88;;;27.48;;
13985;SDS011;7067;51.832;8.296;2023-02-16T11:56:11;80.03;;;31.73;;
13985;SDS011;7067;51.832;8.296;2023-02-16T11:59:14;59.22;;;25.30;;
13985;SDS011;7067;51.832;8.296;2023-02-16T12:02:00;55.63;;;27.15;;
13985;SDS011;7067;51.832;8.296;2023-02-16T12:22:58;67.05;;;28.85;;
13985;SDS011;7067;51.832;8.296;2023-02-16T12:30:36;91.50;;;37.25;;
13985;SDS011;7067;51.832;8.296;2023-02-16T12:36:12;73.82;;;31.33;;
13985;SDS011;7067;51.832;8.296;2023-02-16T12:44:31;39.35;;;22.23;;
13985;SDS011;7067;51.832;8.296;2023-02-16T12:47:02;74.57;;;30.02;;
13985;SDS011;7067;51.832;8.296;2023-02-16T12:50:04;76.90;;;30.58;;
13985;SDS011;7067;51.832;8.296;2023-02-16T12:55:21;52.35;;;24.45;;
13985;SDS011;7067;51.832;8.296;2023-02-16T12:57:53;67.88;;;30.95;;
13985;SDS011;7067;51.832;8.296;2023-02-16T13:00:30;55.30;;;23.38;;
13985;SDS011;7067;51.832;8.296;2023-02-16T13:08:43;64.38;;;25.27;;
13985;SDS011;7067;51.832;8.296;2023-02-16T13:11:20;60.33;;;25.00;;
13985;SDS011;7067;51.832;8.296;2023-02-16T13:13:48;65.15;;;26.63;;
13985;SDS011;7067;51.832;8.296;2023-02-16T13:16:24;70.32;;;29.17;;
13985;SDS011;7067;51.832;8.296;2023-02-16T13:18:51;60.17;;;24.00;;
13985;SDS011;7067;51.832;8.296;2023-02-16T13:37:56;93.68;;;32.55;;
13985;SDS011;7067;51.832;8.296;2023-02-16T13:40:27;29.13;;;25.13;;
13985;SDS011;7067;51.832;8.296;2023-02-16T13:45:48;38.22;;;27.27;;
13985;SDS011;7067;51.832;8.296;2023-02-16T13:50:46;104.55;;;34.35;;
13985;SDS011;7067;51.832;8.296;2023-02-16T13:53:19;80.28;;;28.77;;
13985;SDS011;7067;51.832;8.296;2023-02-16T13:55:46;80.38;;;29.15;;
13985;SDS011;7067;51.832;8.296;2023-02-16T14:00:50;98.80;;;31.95;;
13985;SDS011;7067;51.832;8.296;2023-02-16T14:05:44;78.60;;;28.45;;
13985;SDS011;7067;51.832;8.296;2023-02-16T14:08:12;34.28;;;29.02;;
13985;SDS011;7067;51.832;8.296;2023-02-16T14:15:57;33.05;;;27.45;;
13985;SDS011;7067;51.832;8.296;2023-02-16T14:18:32;110.32;;;31.95;;
13985;SDS011;7067;51.832;8.296;2023-02-16T14:21:05;36.33;;;27.23;;
13985;SDS011;7067;51.832;8.296;2023-02-16T14:23:41;75.60;;;30.95;;
13985;SDS011;7067;51.832;8.296;2023-02-16T14:26:07;29.20;;;25.35;;
13985;SDS011;7067;51.832;8.296;2023-02-16T14:30:59;57.22;;;27.10;;
13985;SDS011;7067;51.832;8.296;2023-02-16T14:33:40;35.20;;;27.65;;
13985;SDS011;7067;51.832;8.296;2023-02-16T14:36:13;62.60;;;30.05;;
13985;SDS011;7067;51.832;8.296;2023-02-16T14:38:44;51.70;;;28.40;;
13985;SDS011;7067;51.832;8.296;2023-02-16T14:41:31;43.95;;;29.10;;
13985;SDS011;7067;51.832;8.296;2023-02-16T14:57:49;85.97;;;30.52;;
13985;SDS011;7067;51.832;8.296;2023-02-16T15:05:28;91.38;;;33.42;;
13985;SDS011;7067;51.832;8.296;2023-02-16T15:10:38;55.40;;;30.83;;
13985;SDS011;7067;51.832;8.296;2023-02-16T15:13:10;86.63;;;29.73;;
13985;SDS011;7067;51.832;8.296;2023-02-16T15:15:44;68.50;;;30.73;;
13985;SDS011;7067;51.832;8.296;2023-02-16T15:18:16;73.65;;;33.15;;
13985;SDS011;7067;51.832;8.296;2023-02-16T15:20:44;82.43;;;32.15;;
13985;SDS011;7067;51.832;8.296;2023-02-16T15:23:18;88.50;;;31.73;;
13985;SDS011;7067;51.832;8.296;2023-02-16T15:26:00;38.92;;;29.13;;
13985;SDS011;7067;51.832;8.296;2023-02-16T15:28:35;89.50;;;33.40;;
13985;SDS011;7067;51.832;8.296;2023-02-16T15:31:13;38.50;;;29.00;;
13985;SDS011;7067;51.832;8.296;2023-02-16T15:33:55;109.95;;;35.58;;
13985;SDS011;7067;51.832;8.296;2023-02-16T15:36:22;38.28;;;30.30;;
13985;SDS011;7067;51.832;8.296;2023-02-16T15:38:59;97.55;;;32.40;;
13985;SDS011;7067;51.832;8.296;2023-02-16T15:41:33;64.38;;;31.80;;
13985;SDS011;7067;51.832;8.296;2023-02-16T15:44:00;79.40;;;34.92;;
13985;SDS011;7067;51.832;8.296;2023-02-16T15:46:31;67.93;;;32.47;;
13985;SDS011;7067;51.832;8.296;2023-02-16T15:51:44;41.42;;;32.50;;
13985;SDS011;7067;51.832;8.296;2023-02-16T15:54:15;113.30;;;36.15;;
13985;SDS011;7067;51.832;8.296;2023-02-16T15:56:46;118.00;;;37.03;;
13985;SDS011;7067;51.832;8.296;2023-02-16T15:59:16;36.92;;;31.10;;
13985;SDS011;7067;51.832;8.296;2023-02-16T16:01:44;61.85;;;31.55;;
13985;SDS011;7067;51.832;8.296;2023-02-16T16:04:21;116.38;;;37.20;;
13985;SDS011;7067;51.832;8.296;2023-02-16T16:06:48;40.55;;;31.80;;
13985;SDS011;7067;51.832;8.296;2023-02-16T16:09:34;101.60;;;37.30;;
13985;SDS011;7067;51.832;8.296;2023-02-16T16:12:04;113.80;;;40.08;;
13985;SDS011;7067;51.832;8.296;2023-02-16T16:14:32;106.47;;;39.25;;
13985;SDS011;7067;51.832;8.296;2023-02-16T16:17:00;89.10;;;36.20;;
13985;SDS011;7067;51.832;8.296;2023-02-16T16:19:36;70.80;;;34.08;;
13985;SDS011;7067;51.832;8.296;2023-02-16T16:22:03;45.67;;;32.05;;
13985;SDS011;7067;51.832;8.296;2023-02-16T16:24:52;76.97;;;34.42;;
13985;SDS011;7067;51.832;8.296;2023-02-16T16:27:26;44.40;;;32.17;;
13985;SDS011;7067;51.832;8.296;2023-02-16T16:33:04;126.68;;;40.35;;
13985;SDS011;7067;51.832;8.296;2023-02-16T16:38:00;71.10;;;34.38;;
13985;SDS011;7067;51.832;8.296;2023-02-16T16:40:27;36.72;;;32.72;;
13985;SDS011;7067;51.832;8.296;2023-02-16T16:45:34;72.97;;;33.92;;
13985;SDS011;7067;51.832;8.296;2023-02-16T16:48:00;111.03;;;37.10;;
13985;SDS011;7067;51.832;8.296;2023-02-16T16:50:27;121.50;;;37.97;;
13985;SDS011;7067;51.832;8.296;2023-02-16T16:53:00;49.03;;;35.03;;
13985;SDS011;7067;51.832;8.296;2023-02-16T16:55:30;128.40;;;42.25;;
13985;SDS011;7067;51.832;8.296;2023-02-16T16:58:02;50.63;;;35.40;;
13985;SDS011;7067;51.832;8.296;2023-02-16T17:00:30;49.83;;;35.53;;
13985;SDS011;7067;51.832;8.296;2023-02-16T17:03:05;70.43;;;38.20;;
13985;SDS011;7067;51.832;8.296;2023-02-16T17:05:32;58.05;;;36.13;;
13985;SDS011;7067;51.832;8.296;2023-02-16T17:07:58;140.90;;;41.30;;
13985;SDS011;7067;51.832;8.296;2023-02-16T17:10:23;127.82;;;42.30;;
13985;SDS011;7067;51.832;8.296;2023-02-16T17:12:50;128.43;;;41.10;;
13985;SDS011;7067;51.832;8.296;2023-02-16T17:15:21;74.50;;;40.20;;
13985;SDS011;7067;51.832;8.296;2023-02-16T17:17:51;109.15;;;44.47;;
13985;SDS011;7067;51.832;8.296;2023-02-16T17:20:16;57.70;;;39.67;;
13985;SDS011;7067;51.832;8.296;2023-02-16T17:22:42;118.38;;;41.38;;
13985;SDS011;7067;51.832;8.296;2023-02-16T17:25:07;88.18;;;40.80;;
13985;SDS011;7067;51.832;8.296;2023-02-16T17:27:32;137.38;;;43.85;;
13985;SDS011;7067;51.832;8.296;2023-02-16T17:29:58;78.70;;;40.63;;
13985;SDS011;7067;51.832;8.296;2023-02-16T17:32:23;120.13;;;41.67;;
13985;SDS011;7067;51.832;8.296;2023-02-16T17:34:48;149.38;;;48.35;;
13985;SDS011;7067;51.832;8.296;2023-02-16T17:37:14;128.00;;;46.47;;
13985;SDS011;7067;51.832;8.296;2023-02-16T17:39:39;47.60;;;37.92;;
13985;SDS011;7067;51.832;8.296;2023-02-16T17:42:08;71.00;;;39.03;;
13985;SDS011;7067;51.832;8.296;2023-02-16T17:44:34;78.85;;;40.90;;
13985;SDS011;7067;51.832;8.296;2023-02-16T17:47:00;48.78;;;37.60;;